Terminal Aerodrome Forecast
Issued by NWS Wilmington, OH

Current Version | Previous Version | Graphics & Text | Print | Product List | Glossary On
Versions: 1 2 3 4 5 6 7 8 9 10 11 12 13 14 15 16 17 18 19 20 21 22 23 24
000
FTUS41 KILN 251121
TAFCMH
TAF
KCMH 251121Z 2512/2612 25018G30KT P6SM BKN025 BKN050
     FM251600 25015G25KT P6SM SCT025 BKN250
      TEMPO 2516/2519 BKN025
     FM251900 26014KT P6SM FEW025 SCT250
     FM252200 26007KT P6SM SKC=

USA.gov is the U.S. government's official web portal to all federal, state and local government web resources and services.